Time,TemperatureF,DewpointF,PressureIn,WindDirection,WindDirectionDegrees,WindSpeedMPH,WindSpeedGustMPH,Humidity,HourlyPrecipIn,Conditions,Clouds,dailyrainin,SoftwareType,DateUTC
2013-07-24 00:01:00,81.5,71.3,29.72,WSW,248,0.2,0.2,71,0.00,,,0.00,WUHU216HW,2013-07-24 04:01:00,
2013-07-24 00:06:00,81.5,71.3,29.72,WSW,248,0.2,0.2,71,0.00,,,0.00,WUHU216HW,2013-07-24 04:06:00,
2013-07-24 00:30:00,81.2,70.9,29.72,SSW,203,0.0,0.0,71,0.00,,,0.00,WUHU216HW,2013-07-24 04:30:00,
2013-07-24 00:35:00,81.2,70.9,29.72,SSW,203,0.0,0.0,71,0.00,,,0.00,WUHU216HW,2013-07-24 04:35:00,
2013-07-24 00:59:00,80.3,70.8,29.72,SW,225,0.0,0.0,73,0.00,,,0.00,WUHU216HW,2013-07-24 04:59:00,
2013-07-24 01:04:00,80.3,70.8,29.72,SW,225,0.0,0.0,73,0.00,,,0.00,WUHU216HW,2013-07-24 05:04:00,
2013-07-24 01:30:00,79.9,70.9,29.72,SW,225,0.0,0.0,74,0.00,,,0.00,WUHU216HW,2013-07-24 05:30:00,
2013-07-24 01:35:00,79.9,70.9,29.72,SW,225,0.0,0.0,74,0.00,,,0.00,WUHU216HW,2013-07-24 05:35:00,
2013-07-24 01:59:00,79.2,70.6,29.72,WSW,248,1.1,1.1,75,0.00,,,0.00,WUHU216HW,2013-07-24 05:59:00,
2013-07-24 02:04:00,79.2,70.6,29.72,WSW,248,1.1,1.1,75,0.00,,,0.00,WUHU216HW,2013-07-24 06:04:00,
2013-07-24 02:30:00,78.8,70.2,29.71,WSW,248,0.0,0.0,75,0.00,,,0.00,WUHU216HW,2013-07-24 06:30:00,
2013-07-24 02:35:00,78.8,70.2,29.71,WSW,248,0.0,0.0,75,0.00,,,0.00,WUHU216HW,2013-07-24 06:35:00,
2013-07-24 02:59:00,78.7,70.0,29.70,West,270,0.0,0.0,75,0.00,,,0.00,WUHU216HW,2013-07-24 06:59:00,
2013-07-24 03:04:00,78.7,70.0,29.70,West,270,0.0,0.0,75,0.00,,,0.00,WUHU216HW,2013-07-24 07:04:00,
2013-07-24 03:30:00,78.3,70.1,29.69,WSW,248,0.0,0.0,76,0.00,,,0.00,WUHU216HW,2013-07-24 07:30:00,
2013-07-24 03:35:00,78.3,70.1,29.69,WSW,248,0.0,0.0,76,0.00,,,0.00,WUHU216HW,2013-07-24 07:35:00,
2013-07-24 03:59:00,77.8,69.6,29.68,WSW,248,0.0,0.0,76,0.00,,,0.00,WUHU216HW,2013-07-24 07:59:00,
2013-07-24 04:04:00,77.8,69.6,29.68,WSW,248,0.0,0.0,76,0.00,,,0.00,WUHU216HW,2013-07-24 08:04:00,
2013-07-24 04:30:00,77.2,69.4,29.68,East,90,0.2,0.2,77,0.00,,,0.00,WUHU216HW,2013-07-24 08:30:00,
2013-07-24 04:35:00,77.2,69.4,29.68,East,90,0.2,0.2,77,0.00,,,0.00,WUHU216HW,2013-07-24 08:35:00,
2013-07-24 04:59:00,76.3,69.4,29.68,East,90,0.0,0.0,79,0.00,,,0.00,WUHU216HW,2013-07-24 08:59:00,
2013-07-24 05:04:00,76.3,69.4,29.68,East,90,0.0,0.0,79,0.00,,,0.00,WUHU216HW,2013-07-24 09:04:00,
2013-07-24 05:30:00,75.8,69.2,29.68,East,90,0.0,0.0,80,0.00,,,0.00,WUHU216HW,2013-07-24 09:30:00,
2013-07-24 05:35:00,75.8,69.2,29.68,East,90,0.0,0.0,80,0.00,,,0.00,WUHU216HW,2013-07-24 09:35:00,
2013-07-24 05:59:00,75.4,69.0,29.69,SE,135,0.0,0.0,80,0.00,,,0.00,WUHU216HW,2013-07-24 09:59:00,
2013-07-24 06:04:00,75.4,69.0,29.69,SE,135,0.0,0.0,80,0.00,,,0.00,WUHU216HW,2013-07-24 10:04:00,
2013-07-24 06:30:00,75.2,69.1,29.70,ESE,113,0.0,0.0,81,0.00,,,0.00,WUHU216HW,2013-07-24 10:30:00,
2013-07-24 06:34:00,75.2,69.1,29.70,ESE,113,0.0,0.0,81,0.00,,,0.00,WUHU216HW,2013-07-24 10:34:00,
2013-07-24 06:59:00,75.1,69.0,29.71,SE,135,0.0,0.0,81,0.00,,,0.00,WUHU216HW,2013-07-24 10:59:00,
2013-07-24 07:04:00,75.1,69.0,29.71,SE,135,0.0,0.0,81,0.00,,,0.00,WUHU216HW,2013-07-24 11:04:00,
2013-07-24 07:30:00,74.9,68.8,29.72,East,90,0.0,0.0,81,0.00,,,0.00,WUHU216HW,2013-07-24 11:30:00,
2013-07-24 07:35:00,74.9,68.8,29.72,East,90,0.0,0.0,81,0.00,,,0.00,WUHU216HW,2013-07-24 11:35:00,
2013-07-24 07:59:00,75.2,69.5,29.73,SW,225,0.2,0.2,82,0.00,,,0.00,WUHU216HW,2013-07-24 11:59:00,
2013-07-24 08:04:00,75.2,69.5,29.73,SW,225,0.2,0.2,82,0.00,,,0.00,WUHU216HW,2013-07-24 12:04:00,
2013-07-24 08:30:00,76.0,69.8,29.73,SW,225,0.7,0.7,81,0.00,,,0.00,WUHU216HW,2013-07-24 12:30:00,
2013-07-24 08:35:00,76.0,69.8,29.73,SW,225,0.7,0.7,81,0.00,,,0.00,WUHU216HW,2013-07-24 12:35:00,
2013-07-24 09:00:00,77.4,70.7,29.74,North,0,0.0,0.0,80,0.00,,,0.00,WUHU216HW,2013-07-24 13:00:00,
2013-07-24 09:05:00,77.4,70.7,29.74,North,0,0.0,0.0,80,0.00,,,0.00,WUHU216HW,2013-07-24 13:05:00,
2013-07-24 09:30:00,78.5,71.0,29.75,NNW,338,0.9,0.9,78,0.00,,,0.00,WUHU216HW,2013-07-24 13:30:00,
2013-07-24 09:35:00,78.5,71.0,29.75,NNW,338,0.9,0.9,78,0.00,,,0.00,WUHU216HW,2013-07-24 13:35:00,
2013-07-24 10:00:00,79.6,71.7,29.74,SSW,203,0.4,0.4,77,0.00,,,0.00,WUHU216HW,2013-07-24 14:00:00,
2013-07-24 10:05:00,79.6,71.7,29.74,SSW,203,0.4,0.4,77,0.00,,,0.00,WUHU216HW,2013-07-24 14:05:00,
2013-07-24 10:30:00,80.5,71.0,29.74,ESE,113,0.0,0.0,73,0.00,,,0.00,WUHU216HW,2013-07-24 14:30:00,
2013-07-24 10:35:00,80.5,71.0,29.74,ESE,113,0.0,0.0,73,0.00,,,0.00,WUHU216HW,2013-07-24 14:35:00,
2013-07-24 11:00:00,82.4,72.5,29.74,West,270,0.9,0.9,72,0.00,,,0.00,WUHU216HW,2013-07-24 15:00:00,
2013-07-24 11:05:00,82.4,72.5,29.74,West,270,0.9,0.9,72,0.00,,,0.00,WUHU216HW,2013-07-24 15:05:00,
2013-07-24 11:30:00,84.4,72.3,29.74,North,0,1.1,1.1,67,0.00,,,0.00,WUHU216HW,2013-07-24 15:30:00,
2013-07-24 11:35:00,84.4,72.3,29.74,North,0,1.1,1.1,67,0.00,,,0.00,WUHU216HW,2013-07-24 15:35:00,
2013-07-24 11:59:00,86.0,72.0,29.74,SW,225,2.0,2.0,63,0.00,,,0.00,WUHU216HW,2013-07-24 15:59:00,
2013-07-24 12:04:00,86.0,72.0,29.74,SW,225,2.0,2.0,63,0.00,,,0.00,WUHU216HW,2013-07-24 16:04:00,
2013-07-24 12:30:00,87.1,72.1,29.74,SW,225,2.2,2.2,61,0.00,,,0.00,WUHU216HW,2013-07-24 16:30:00,
2013-07-24 12:34:00,87.1,72.1,29.74,SW,225,2.2,2.2,61,0.00,,,0.00,WUHU216HW,2013-07-24 16:34:00,
2013-07-24 12:59:00,87.8,71.8,29.72,WSW,248,1.1,1.1,59,0.00,,,0.00,WUHU216HW,2013-07-24 16:59:00,
2013-07-24 13:04:00,87.8,71.8,29.72,WSW,248,1.1,1.1,59,0.00,,,0.00,WUHU216HW,2013-07-24 17:04:00,
2013-07-24 13:29:00,88.6,71.9,29.72,East,90,0.2,0.2,58,0.00,,,0.00,WUHU216HW,2013-07-24 17:29:00,
2013-07-24 13:34:00,88.6,71.9,29.72,East,90,0.2,0.2,58,0.00,,,0.00,WUHU216HW,2013-07-24 17:34:00,
2013-07-24 13:59:00,90.2,72.8,29.72,WSW,248,0.4,0.4,57,0.00,,,0.00,WUHU216HW,2013-07-24 17:59:00,
2013-07-24 14:04:00,90.2,72.8,29.72,WSW,248,0.4,0.4,57,0.00,,,0.00,WUHU216HW,2013-07-24 18:04:00,
2013-07-24 14:30:00,90.9,73.0,29.72,WNW,293,0.9,0.9,56,0.00,,,0.00,WUHU216HW,2013-07-24 18:30:00,
2013-07-24 14:35:00,90.9,73.0,29.72,WNW,293,0.9,0.9,56,0.00,,,0.00,WUHU216HW,2013-07-24 18:35:00,
2013-07-24 14:59:00,93.4,73.1,29.70,WNW,293,1.1,1.1,52,0.00,,,0.00,WUHU216HW,2013-07-24 18:59:00,
2013-07-24 15:05:00,93.4,73.1,29.70,WNW,293,1.1,1.1,52,0.00,,,0.00,WUHU216HW,2013-07-24 19:05:00,
2013-07-24 15:30:00,93.8,71.0,29.69,South,180,0.9,0.9,48,0.00,,,0.00,WUHU216HW,2013-07-24 19:30:00,
2013-07-24 15:35:00,93.8,71.0,29.69,South,180,0.9,0.9,48,0.00,,,0.00,WUHU216HW,2013-07-24 19:35:00,
2013-07-24 15:59:00,94.0,73.1,29.69,ENE,68,0.4,0.4,51,0.00,,,0.00,WUHU216HW,2013-07-24 19:59:00,
2013-07-24 16:04:00,94.0,73.1,29.69,ENE,68,0.4,0.4,51,0.00,,,0.00,WUHU216HW,2013-07-24 20:04:00,
2013-07-24 16:30:00,92.0,72.9,29.69,NE,45,0.0,0.0,54,0.00,,,0.00,WUHU216HW,2013-07-24 20:30:00,
2013-07-24 16:34:00,92.0,72.9,29.69,NE,45,0.0,0.0,54,0.00,,,0.00,WUHU216HW,2013-07-24 20:34:00,
2013-07-24 16:59:00,90.4,73.0,29.69,SW,225,0.4,0.4,57,0.00,,,0.00,WUHU216HW,2013-07-24 20:59:00,
2013-07-24 17:04:00,90.4,73.0,29.69,SW,225,0.4,0.4,57,0.00,,,0.00,WUHU216HW,2013-07-24 21:04:00,
2013-07-24 17:30:00,88.6,71.9,29.71,SSE,158,0.7,0.7,58,0.00,,,0.00,WUHU216HW,2013-07-24 21:30:00,
2013-07-24 17:35:00,88.6,71.9,29.71,SSE,158,0.7,0.7,58,0.00,,,0.00,WUHU216HW,2013-07-24 21:35:00,
2013-07-24 17:59:00,81.0,68.6,29.70,ENE,68,0.2,0.2,66,0.04,,,0.00,WUHU216HW,2013-07-24 21:59:00,
2013-07-24 18:04:00,81.0,68.6,29.70,ENE,68,0.2,0.2,66,0.04,,,0.00,WUHU216HW,2013-07-24 22:04:00,
2013-07-24 18:30:00,77.9,67.8,29.71,East,90,0.4,0.4,71,0.05,,,0.04,WUHU216HW,2013-07-24 22:30:00,
2013-07-24 18:35:00,77.9,67.8,29.71,East,90,0.4,0.4,71,0.05,,,0.04,WUHU216HW,2013-07-24 22:35:00,
2013-07-24 18:59:00,76.3,68.6,29.70,NE,45,0.4,0.4,77,0.04,,,0.07,WUHU216HW,2013-07-24 22:59:00,
2013-07-24 19:04:00,76.3,68.6,29.70,NE,45,0.4,0.4,77,0.04,,,0.07,WUHU216HW,2013-07-24 23:04:00,
2013-07-24 19:30:00,76.5,69.5,29.72,SW,225,1.3,1.3,79,0.02,,,0.09,WUHU216HW,2013-07-24 23:30:00,
2013-07-24 19:35:00,76.5,69.5,29.72,SW,225,1.3,1.3,79,0.02,,,0.09,WUHU216HW,2013-07-24 23:35:00,
2013-07-24 19:59:00,77.0,70.4,29.72,SE,135,0.0,0.0,80,0.00,,,0.09,WUHU216HW,2013-07-24 23:59:00,
2013-07-24 20:05:00,77.0,70.4,29.72,SE,135,0.0,0.0,80,0.00,,,0.09,WUHU216HW,2013-07-25 00:05:00,
2013-07-24 20:30:00,76.7,70.7,29.74,ESE,113,1.3,1.3,82,0.00,,,0.09,WUHU216HW,2013-07-25 00:30:00,
2013-07-24 20:35:00,76.7,70.7,29.74,ESE,113,1.3,1.3,82,0.00,,,0.09,WUHU216HW,2013-07-25 00:35:00,
2013-07-24 20:59:00,76.7,70.4,29.75,SE,135,0.0,0.0,81,0.00,,,0.09,WUHU216HW,2013-07-25 00:59:00,
2013-07-24 21:04:00,76.7,70.4,29.75,SE,135,0.0,0.0,81,0.00,,,0.09,WUHU216HW,2013-07-25 01:04:00,
2013-07-24 21:30:00,76.3,70.5,29.76,WNW,293,0.4,0.4,82,0.00,,,0.09,WUHU216HW,2013-07-25 01:30:00,
2013-07-24 21:35:00,76.3,70.5,29.76,WNW,293,0.4,0.4,82,0.00,,,0.09,WUHU216HW,2013-07-25 01:35:00,
2013-07-24 21:59:00,75.6,70.1,29.77,SW,225,0.4,0.4,83,0.00,,,0.09,WUHU216HW,2013-07-25 01:59:00,
2013-07-24 22:04:00,75.6,70.1,29.77,SW,225,0.4,0.4,83,0.00,,,0.09,WUHU216HW,2013-07-25 02:04:00,
2013-07-24 22:30:00,75.8,70.7,29.79,WNW,293,0.0,0.0,84,0.00,,,0.09,WUHU216HW,2013-07-25 02:30:00,
2013-07-24 22:35:00,75.8,70.7,29.79,WNW,293,0.0,0.0,84,0.00,,,0.09,WUHU216HW,2013-07-25 02:35:00,
2013-07-24 23:00:00,75.8,70.7,29.78,WNW,293,1.1,1.1,84,0.00,,,0.09,WUHU216HW,2013-07-25 03:00:00,
2013-07-24 23:05:00,75.8,70.7,29.78,WNW,293,1.1,1.1,84,0.00,,,0.09,WUHU216HW,2013-07-25 03:05:00,
2013-07-24 23:30:00,75.2,70.1,29.78,North,0,0.7,0.7,84,0.00,,,0.09,WUHU216HW,2013-07-25 03:30:00,
2013-07-24 23:35:00,75.2,70.1,29.78,North,0,0.7,0.7,84,0.00,,,0.09,WUHU216HW,2013-07-25 03:35:00,